createdAt,value
2023-04-15T00:01:10.051Z,91473.56
2023-04-15T00:03:40.649Z,91471.75
2023-04-15T00:06:09.835Z,91465.03
2023-04-15T00:08:38.606Z,91469.50
2023-04-15T00:11:07.255Z,91468.13
2023-04-15T00:13:36.035Z,91474.28
2023-04-15T00:16:04.485Z,91469.81
2023-04-15T00:18:32.973Z,91469.50
2023-04-15T00:21:03.029Z,91460.91
2023-04-15T00:23:32.280Z,91461.88
2023-04-15T00:26:00.738Z,91459.63
2023-04-15T00:28:29.600Z,91450.69
2023-04-15T00:30:58.270Z,91458.19
2023-04-15T00:33:26.806Z,91454.03
2023-04-15T00:35:55.234Z,91450.88
2023-04-15T00:38:25.054Z,91454.72
2023-04-15T00:40:54.182Z,91441.75
2023-04-15T00:43:22.642Z,91452.56
2023-04-15T00:45:53.722Z,91439.38
2023-04-15T00:48:22.558Z,91446.63
2023-04-15T00:50:51.013Z,91444.25
2023-04-15T00:53:19.716Z,91452.69
2023-04-15T00:55:49.747Z,91450.81
2023-04-15T00:58:18.401Z,91450.88
2023-04-15T01:00:47.290Z,91455.50
2023-04-15T01:03:16.603Z,91448.78
2023-04-15T01:05:45.134Z,91449.50
2023-04-15T01:08:13.921Z,91448.25
2023-04-15T01:10:42.630Z,91451.66
2023-04-15T01:13:12.451Z,91450.34
2023-04-15T01:15:41.494Z,91449.56
2023-04-15T01:18:10.127Z,91448.50
2023-04-15T01:20:38.671Z,91456.66
2023-04-15T01:23:07.628Z,91444.81
2023-04-15T01:25:37.527Z,91453.88
2023-04-15T01:28:06.346Z,91456.53
2023-04-15T01:30:36.100Z,91447.31
2023-04-15T01:33:04.986Z,91449.88
2023-04-15T01:35:33.498Z,91446.97
2023-04-15T01:38:07.681Z,91454.00
2023-04-15T01:40:37.808Z,91452.91
2023-04-15T01:43:06.274Z,91450.53
2023-04-15T01:45:34.989Z,91445.28
2023-04-15T01:48:03.682Z,91450.53
2023-04-15T01:50:32.415Z,91446.03
2023-04-15T01:53:00.814Z,91446.47
2023-04-15T01:55:29.299Z,91446.53
2023-04-15T01:57:59.321Z,91439.25
2023-04-15T02:00:27.759Z,91440.00
2023-04-15T02:02:56.329Z,91441.69
2023-04-15T02:05:25.325Z,91445.59
2023-04-15T02:07:54.315Z,91440.41
2023-04-15T02:10:23.375Z,91448.69
2023-04-15T02:12:51.820Z,91444.09
2023-04-15T02:15:21.683Z,91446.41
2023-04-15T02:17:51.176Z,91449.41
2023-04-15T02:20:22.540Z,91448.16
2023-04-15T02:22:51.668Z,91450.66
2023-04-15T02:25:20.571Z,91454.91
2023-04-15T02:27:49.249Z,91453.22
2023-04-15T02:30:18.096Z,91440.97
2023-04-15T02:32:48.496Z,91440.28
2023-04-15T02:35:19.429Z,91447.81
2023-04-15T02:37:47.851Z,91444.06
2023-04-15T02:40:16.256Z,91447.31
2023-04-15T02:42:45.351Z,91456.66
2023-04-15T02:45:14.215Z,91461.16
2023-04-15T02:47:43.375Z,91450.47
2023-04-15T02:50:15.389Z,91451.88
2023-04-15T02:52:44.753Z,91449.09
2023-04-15T02:55:13.573Z,91444.84
2023-04-15T02:57:42.093Z,91452.03
2023-04-15T03:00:12.192Z,91451.16
2023-04-15T03:02:42.297Z,91455.25
2023-04-15T03:05:16.098Z,91452.81
2023-04-15T03:07:44.619Z,91452.47
2023-04-15T03:10:13.098Z,91449.50
2023-04-15T03:12:41.861Z,91450.41
2023-04-15T03:15:11.868Z,91449.00
2023-04-15T03:17:40.344Z,91448.13
2023-04-15T03:20:10.426Z,91436.78
2023-04-15T03:22:40.297Z,91445.03
2023-04-15T03:25:09.516Z,91434.75
2023-04-15T03:27:39.139Z,91439.66
2023-04-15T03:30:09.578Z,91437.13
2023-04-15T03:32:38.072Z,91428.47
2023-04-15T03:35:07.558Z,91425.13
2023-04-15T03:37:36.325Z,91433.50
2023-04-15T03:40:07.458Z,91429.03
2023-04-15T03:42:36.282Z,91430.63
2023-04-15T03:45:05.249Z,91424.03
2023-04-15T03:47:33.654Z,91431.34
2023-04-15T03:50:02.085Z,91432.84
2023-04-15T03:52:30.546Z,91434.22
2023-04-15T03:54:58.944Z,91428.59
2023-04-15T03:57:28.785Z,91433.56
2023-04-15T03:59:57.299Z,91430.72
2023-04-15T04:02:26.033Z,91430.09
2023-04-15T04:04:54.557Z,91431.97
2023-04-15T04:07:25.809Z,91424.25
2023-04-15T04:09:54.349Z,91429.06
2023-04-15T04:12:22.765Z,91422.63
2023-04-15T04:14:52.818Z,91425.28
2023-04-15T04:17:21.224Z,91418.91
2023-04-15T04:19:49.892Z,91422.69
2023-04-15T04:22:18.303Z,91418.91
2023-04-15T04:24:46.936Z,91428.06
2023-04-15T04:27:15.742Z,91426.81
2023-04-15T04:29:44.315Z,91428.34
2023-04-15T04:32:14.225Z,91432.59
2023-04-15T04:34:42.763Z,91439.03
2023-04-15T04:37:11.430Z,91437.63
2023-04-15T04:39:40.123Z,91439.28
2023-04-15T04:42:08.583Z,91427.66
2023-04-15T04:44:37.287Z,91434.50
2023-04-15T04:47:06.606Z,91433.91
2023-04-15T04:49:36.899Z,91436.50
2023-04-15T04:52:05.818Z,91440.00
2023-04-15T04:54:34.242Z,91442.75
2023-04-15T04:57:03.087Z,91441.06
2023-04-15T04:59:31.899Z,91446.28
2023-04-15T05:02:00.739Z,91450.84
2023-04-15T05:04:29.242Z,91445.06
2023-04-15T05:06:59.372Z,91453.09
2023-04-15T05:09:28.410Z,91449.69
2023-04-15T05:11:56.819Z,91448.56
2023-04-15T05:14:25.316Z,91452.13
2023-04-15T05:16:53.772Z,91452.13
2023-04-15T05:19:22.214Z,91446.50
2023-04-15T05:21:50.643Z,91448.56
2023-04-15T05:24:21.281Z,91449.69
2023-04-15T05:26:49.685Z,91450.28
2023-04-15T05:29:18.328Z,91466.34
2023-04-15T05:31:46.943Z,91461.00
2023-04-15T05:34:16.595Z,91455.75
2023-04-15T05:36:45.023Z,91454.13
2023-04-15T05:39:13.704Z,91452.75
2023-04-15T05:41:43.564Z,91445.91
2023-04-15T05:44:12.039Z,91450.50
2023-04-15T05:46:40.913Z,91449.53
2023-04-15T05:49:09.383Z,91451.00
2023-04-15T05:51:37.856Z,91451.09
2023-04-15T05:54:06.908Z,91455.50
2023-04-15T05:56:35.526Z,91451.72
2023-04-15T05:59:05.326Z,91454.19
2023-04-15T06:01:35.648Z,91445.38
2023-04-15T06:04:04.207Z,91449.94
2023-04-15T06:06:33.678Z,91450.00
2023-04-15T06:09:02.774Z,91442.84
2023-04-15T06:11:31.486Z,91444.44
2023-04-15T06:13:59.928Z,91437.31
2023-04-15T06:16:29.819Z,91442.56
2023-04-15T06:18:58.254Z,91445.03
2023-04-15T06:21:27.082Z,91436.78
2023-04-15T06:23:56.697Z,91444.44
2023-04-15T06:26:25.134Z,91452.91
2023-04-15T06:28:53.521Z,91451.28
2023-04-15T06:31:21.923Z,91447.53
2023-04-15T06:33:51.817Z,91437.19
2023-04-15T06:36:20.347Z,91430.81
2023-04-15T06:38:48.788Z,91438.59
2023-04-15T06:41:17.218Z,91444.78
2023-04-15T06:43:45.694Z,91438.16
2023-04-15T06:46:14.156Z,91439.25
2023-04-15T06:48:42.593Z,91440.03
2023-04-15T06:51:12.731Z,91444.97
2023-04-15T06:53:42.800Z,91449.28
2023-04-15T06:56:11.644Z,91439.56
2023-04-15T06:58:40.046Z,91441.94
2023-04-15T07:01:08.490Z,91443.53
2023-04-15T07:03:37.147Z,91433.34
2023-04-15T07:06:07.158Z,91437.25
2023-04-15T07:08:36.981Z,91431.84
2023-04-15T07:11:05.524Z,91442.03
2023-04-15T07:13:34.641Z,91435.53
2023-04-15T07:16:03.073Z,91431.88
2023-04-15T07:18:31.466Z,91426.38
2023-04-15T07:20:59.869Z,91421.44
2023-04-15T07:23:28.336Z,91417.97
2023-04-15T07:25:58.582Z,91417.56
2023-04-15T07:28:27.032Z,91418.75
2023-04-15T07:30:57.372Z,91422.97
2023-04-15T07:33:25.916Z,91419.91
2023-04-15T07:35:54.670Z,91420.63
2023-04-15T07:38:24.065Z,91417.22
2023-04-15T07:40:52.558Z,91419.50
2023-04-15T07:43:22.690Z,91426.78
2023-04-15T07:45:51.359Z,91420.66
2023-04-15T07:48:19.842Z,91427.56
2023-04-15T07:50:48.512Z,91418.78
2023-04-15T07:53:16.931Z,91425.28
2023-04-15T07:55:45.662Z,91419.16
2023-04-15T07:58:14.073Z,91426.78
2023-04-15T08:00:43.927Z,91425.22
2023-04-15T08:03:12.495Z,91426.03
2023-04-15T08:05:41.118Z,91425.19
2023-04-15T08:08:09.488Z,91425.50
2023-04-15T08:10:39.091Z,91421.25
2023-04-15T08:13:08.055Z,91424.28
2023-04-15T08:15:36.892Z,91425.06
2023-04-15T08:18:07.327Z,91422.69
2023-04-15T08:20:35.760Z,91426.41
2023-04-15T08:23:04.729Z,91430.91
2023-04-15T08:25:33.445Z,91428.53
2023-04-15T08:28:07.174Z,91436.06
2023-04-15T08:30:35.700Z,91437.19
2023-04-15T08:33:04.188Z,91425.25
2023-04-15T08:35:33.973Z,91432.28
2023-04-15T08:38:02.794Z,91435.78
2023-04-15T08:40:41.620Z,91432.56
2023-04-15T08:43:12.632Z,91434.75
2023-04-15T08:45:41.305Z,91434.25
2023-04-15T08:48:11.479Z,91438.69
2023-04-15T08:50:42.131Z,91437.34
2023-04-15T08:53:11.380Z,91429.16
2023-04-15T08:55:46.155Z,91427.38
2023-04-15T08:58:17.282Z,91432.69
2023-04-15T09:00:45.861Z,91429.56
2023-04-15T09:03:14.460Z,91420.88
2023-04-15T09:05:44.502Z,91429.84
2023-04-15T09:08:13.290Z,91431.16
2023-04-15T09:10:41.755Z,91433.03
2023-04-15T09:13:10.774Z,91435.97
2023-04-15T09:15:40.651Z,91438.91
2023-04-15T09:18:09.344Z,91442.50
2023-04-15T09:20:43.109Z,91440.56
2023-04-15T09:23:17.598Z,91451.59
2023-04-15T09:25:46.700Z,91451.72
2023-04-15T09:28:15.313Z,91450.38
2023-04-15T09:30:46.606Z,91458.06
2023-04-15T09:33:16.749Z,91456.31
2023-04-15T09:36:01.035Z,91457.34
2023-04-15T09:38:30.491Z,91467.81
2023-04-15T09:41:00.006Z,91462.28
2023-04-15T09:43:40.983Z,91459.66
2023-04-15T09:46:09.504Z,91457.84
2023-04-15T09:48:38.294Z,91461.75
2023-04-15T09:51:08.370Z,91460.22
2023-04-15T09:53:39.003Z,91457.94
2023-04-15T09:56:09.157Z,91464.06
2023-04-15T09:58:38.871Z,91459.13
2023-04-15T10:01:09.324Z,91463.22
2023-04-15T10:03:38.117Z,91458.78
2023-04-15T10:06:08.350Z,91463.41
2023-04-15T10:08:37.002Z,91463.41
2023-04-15T10:11:06.011Z,91458.50
2023-04-15T10:13:36.346Z,91461.03
2023-04-15T10:16:10.497Z,91457.81
2023-04-15T10:18:45.707Z,91460.34
2023-04-15T10:21:18.632Z,91457.69
2023-04-15T10:23:48.044Z,91462.22
2023-04-15T10:26:18.367Z,91465.19
2023-04-15T10:28:48.595Z,91467.53
2023-04-15T10:31:18.573Z,91470.53
2023-04-15T10:33:49.171Z,91467.44
2023-04-15T10:36:21.251Z,91469.91
2023-04-15T10:38:49.703Z,91481.03
2023-04-15T10:41:21.548Z,91473.00
2023-04-15T10:43:52.937Z,91485.81
2023-04-15T10:46:24.606Z,91484.16
2023-04-15T10:48:55.018Z,91491.34
2023-04-15T10:51:33.915Z,91492.38
2023-04-15T10:54:02.614Z,91494.25
2023-04-15T10:56:31.919Z,91505.78
2023-04-15T10:59:03.336Z,91497.53
2023-04-15T11:02:00.469Z,91494.47
2023-04-15T11:05:02.644Z,91499.47
2023-04-15T11:07:41.615Z,91497.34
2023-04-15T11:10:56.211Z,91499.72
2023-04-15T11:13:29.494Z,91499.97
2023-04-15T11:16:03.637Z,91496.19
2023-04-15T11:18:35.389Z,91497.94
2023-04-15T11:21:09.560Z,91499.47
2023-04-15T11:23:44.444Z,91499.72
2023-04-15T11:26:12.994Z,91510.25
2023-04-15T11:28:43.696Z,91506.22
2023-04-15T11:31:15.176Z,91513.72
2023-04-15T11:33:48.884Z,91517.94
2023-04-15T11:36:18.076Z,91517.72
2023-04-15T11:38:49.019Z,91527.06
2023-04-15T11:41:22.000Z,91522.03
2023-04-15T11:43:51.258Z,91521.03
2023-04-15T11:46:20.373Z,91535.75
2023-04-15T11:48:48.977Z,91531.19
2023-04-15T11:51:17.712Z,91537.06
2023-04-15T11:53:49.577Z,91541.72
2023-04-15T11:56:23.899Z,91540.53
2023-04-15T11:58:57.046Z,91547.34
2023-04-15T12:01:33.613Z,91552.13
2023-04-15T12:04:04.371Z,91547.84
2023-04-15T12:06:37.080Z,91557.03
2023-04-15T12:09:12.222Z,91564.31
2023-04-15T12:11:45.025Z,91570.91
2023-04-15T12:14:20.034Z,91568.06
2023-04-15T12:16:52.012Z,91571.59
2023-04-15T12:19:25.985Z,91581.50
2023-04-15T12:22:00.609Z,91579.81
2023-04-15T12:24:33.760Z,91581.50
2023-04-15T12:27:05.664Z,91595.38
2023-04-15T12:29:36.646Z,91598.47
2023-04-15T12:32:11.089Z,91599.38
2023-04-15T12:34:41.896Z,91610.91
2023-04-15T12:37:12.169Z,91623.94
2023-04-15T12:39:43.926Z,91629.59
2023-04-15T12:42:13.677Z,91627.38
2023-04-15T12:44:42.276Z,91636.03
2023-04-15T12:47:12.228Z,91642.16
2023-04-15T12:49:41.123Z,91644.00
2023-04-15T12:52:10.008Z,91646.63
2023-04-15T12:54:38.436Z,91649.97
2023-04-15T12:57:08.440Z,91652.41
2023-04-15T12:59:37.589Z,91655.72
2023-04-15T13:02:06.497Z,91651.84
2023-04-15T13:04:35.127Z,91653.47
2023-04-15T13:07:03.844Z,91647.44
2023-04-15T13:09:32.642Z,91645.75
2023-04-15T13:12:01.507Z,91655.41
2023-04-15T13:14:31.655Z,91647.09
2023-04-15T13:17:01.535Z,91658.91
2023-04-15T13:19:30.091Z,91659.72
2023-04-15T13:21:58.516Z,91669.72
2023-04-15T13:24:27.029Z,91664.34
2023-04-15T13:26:57.238Z,91661.47
2023-04-15T13:29:26.044Z,91657.19
2023-04-15T13:31:55.986Z,91665.44
2023-04-15T13:34:24.521Z,91671.75
2023-04-15T13:36:53.093Z,91682.25
2023-04-15T13:39:21.610Z,91687.91
2023-04-15T13:41:50.151Z,91700.28
2023-04-15T13:44:20.898Z,91704.22
2023-04-15T13:46:50.454Z,91712.69
2023-04-15T13:49:20.604Z,91719.00
2023-04-15T13:51:49.031Z,91727.44
2023-04-15T13:54:17.455Z,91724.22
2023-04-15T13:56:46.026Z,91724.19
2023-04-15T13:59:14.724Z,91725.28
2023-04-15T14:01:43.819Z,91719.59
2023-04-15T14:04:12.617Z,91727.16
2023-04-15T14:06:42.603Z,91722.97
2023-04-15T14:09:12.663Z,91721.13
2023-04-15T14:11:41.108Z,91714.72
2023-04-15T14:14:09.863Z,91718.66
2023-04-15T14:16:38.349Z,91715.34
2023-04-15T14:19:07.022Z,91724.19
2023-04-15T14:21:35.846Z,91715.75
2023-04-15T14:24:06.526Z,91712.06
2023-04-15T14:26:35.080Z,91715.78
2023-04-15T14:29:03.716Z,91714.16
2023-04-15T14:31:32.533Z,91710.22
2023-04-15T14:34:00.955Z,91720.34
2023-04-15T14:36:29.434Z,91722.34
2023-04-15T14:38:57.879Z,91722.84
2023-04-15T14:41:27.789Z,91725.84
2023-04-15T14:43:57.636Z,91732.16
2023-04-15T14:46:26.695Z,91731.88
2023-04-15T14:48:55.650Z,91745.00
2023-04-15T14:51:24.859Z,91744.47
2023-04-15T14:53:53.295Z,91750.69
2023-04-15T14:56:21.711Z,91748.16
2023-04-15T14:58:53.226Z,91748.28
2023-04-15T15:01:22.446Z,91745.16
2023-04-15T15:03:51.407Z,91761.00
2023-04-15T15:06:21.910Z,91757.59
2023-04-15T15:08:51.222Z,91759.75
2023-04-15T15:11:19.720Z,91766.69
2023-04-15T15:13:48.152Z,91771.06
2023-04-15T15:16:18.312Z,91770.72
2023-04-15T15:18:46.886Z,91786.16
2023-04-15T15:21:15.342Z,91783.81
2023-04-15T15:23:43.827Z,91788.63
2023-04-15T15:26:12.876Z,91783.66
2023-04-15T15:28:42.247Z,91783.81
2023-04-15T15:31:10.986Z,91791.66
2023-04-15T15:33:41.094Z,91799.25
2023-04-15T15:36:10.937Z,91790.25
2023-04-15T15:38:39.391Z,91794.47
2023-04-15T15:41:08.118Z,91798.28
2023-04-15T15:43:36.604Z,91803.66
2023-04-15T15:46:05.959Z,91802.06
2023-04-15T15:48:34.485Z,91813.69
2023-04-15T15:51:04.888Z,91807.16
2023-04-15T15:53:33.385Z,91816.56
2023-04-15T15:56:03.756Z,91824.03
2023-04-15T15:58:32.331Z,91830.72
2023-04-15T16:01:01.891Z,91829.22
2023-04-15T16:03:31.328Z,91830.84
2023-04-15T16:05:59.904Z,91837.00
2023-04-15T16:08:29.836Z,91838.59
2023-04-15T16:10:58.347Z,91843.13
2023-04-15T16:13:26.824Z,91846.38
2023-04-15T16:15:55.281Z,91850.59
2023-04-15T16:18:23.721Z,91852.34
2023-04-15T16:20:52.158Z,91853.75
2023-04-15T16:23:21.203Z,91859.63
2023-04-15T16:25:52.565Z,91865.78
2023-04-15T16:28:26.989Z,91881.22
2023-04-15T16:30:56.278Z,91885.09
2023-04-15T16:33:24.822Z,91887.06
2023-04-15T16:35:53.521Z,91892.56
2023-04-15T16:38:22.717Z,91894.88
2023-04-15T16:40:52.956Z,91901.47
2023-04-15T16:43:21.489Z,91897.63
2023-04-15T16:45:51.548Z,91895.03
2023-04-15T16:48:20.971Z,91901.56
2023-04-15T16:50:49.940Z,91909.63
2023-04-15T16:53:18.662Z,91904.97
2023-04-15T16:55:47.080Z,91909.28
2023-04-15T16:58:16.991Z,91911.97
2023-04-15T17:00:45.979Z,91911.66
2023-04-15T17:03:14.593Z,91915.19
2023-04-15T17:05:43.416Z,91913.69
2023-04-15T17:08:11.851Z,91906.03
2023-04-15T17:10:40.351Z,91917.59
2023-04-15T17:13:09.256Z,91909.50
2023-04-15T17:15:39.120Z,91913.41
2023-04-15T17:18:11.509Z,91925.34
2023-04-15T17:20:40.830Z,91921.47
2023-04-15T17:23:09.273Z,91924.94
2023-04-15T17:25:37.861Z,91928.88
2023-04-15T17:28:06.612Z,91935.00
2023-04-15T17:30:35.100Z,91947.34
2023-04-15T17:33:57.496Z,91943.91
2023-04-15T17:35:53.683Z,91951.25
2023-04-15T17:38:22.127Z,91957.00
2023-04-15T17:40:51.673Z,91955.53
2023-04-15T17:43:20.229Z,91963.25
2023-04-15T17:45:48.818Z,91964.78
2023-04-15T17:48:18.611Z,91967.19
2023-04-15T17:50:47.010Z,91972.56
2023-04-15T17:53:15.544Z,91984.13
2023-04-15T17:55:44.086Z,91977.59
2023-04-15T17:58:12.556Z,91986.44
2023-04-15T18:00:41.051Z,91986.44
2023-04-15T18:03:09.659Z,91978.03
2023-04-15T18:05:41.362Z,91984.94
2023-04-15T18:08:11.140Z,91994.91
2023-04-15T18:10:40.639Z,92000.28
2023-04-15T18:13:10.047Z,92001.88
2023-04-15T18:15:38.692Z,92002.59
2023-04-15T18:18:07.584Z,92011.50
2023-04-15T18:20:36.130Z,92008.44
2023-04-15T18:23:05.962Z,92019.56
2023-04-15T18:25:34.970Z,92020.38
2023-04-15T18:28:03.835Z,92028.06
2023-04-15T18:30:32.354Z,92035.31
2023-04-15T18:33:00.863Z,92041.84
2023-04-15T18:35:30.133Z,92040.69
2023-04-15T18:37:59.136Z,92043.75
2023-04-15T18:40:29.110Z,92050.69
2023-04-15T18:42:57.809Z,92053.38
2023-04-15T18:45:26.357Z,92061.81
2023-04-15T18:47:54.981Z,92063.34
2023-04-15T18:50:23.463Z,92064.53
2023-04-15T18:52:51.882Z,92072.56
2023-04-15T18:55:20.803Z,92080.25
2023-04-15T18:57:51.039Z,92081.03
2023-04-15T19:00:19.920Z,92077.19
2023-04-15T19:02:48.534Z,92084.47
2023-04-15T19:05:17.166Z,92088.69
2023-04-15T19:07:45.810Z,92100.59
2023-04-15T19:10:14.583Z,92091.75
2023-04-15T19:12:43.152Z,92097.91
2023-04-15T19:15:13.334Z,92105.22
2023-04-15T19:17:42.014Z,92115.56
2023-04-15T19:20:11.424Z,92125.19
2023-04-15T19:22:40.003Z,92123.25
2023-04-15T19:25:09.650Z,92124.81
2023-04-15T19:27:38.337Z,92132.47
2023-04-15T19:30:08.592Z,92143.19
2023-04-15T19:32:38.422Z,92155.44
2023-04-15T19:35:09.932Z,92143.91
2023-04-15T19:37:39.755Z,92160.34
2023-04-15T19:40:10.014Z,92161.47
2023-04-15T19:42:38.437Z,92169.09
2023-04-15T19:45:08.272Z,92162.94
2023-04-15T19:47:38.260Z,92165.94
2023-04-15T19:50:10.041Z,92172.06
2023-04-15T19:52:38.917Z,92182.00
2023-04-15T19:55:08.032Z,92175.38
2023-04-15T19:57:36.552Z,92182.78
2023-04-15T20:00:06.993Z,92193.47
2023-04-15T20:02:35.574Z,92189.63
2023-04-15T20:05:09.738Z,92190.69
2023-04-15T20:07:39.909Z,92187.56
2023-04-15T20:10:13.049Z,92195.59
2023-04-15T20:12:50.395Z,92195.59
2023-04-15T20:15:22.724Z,92199.75
2023-04-15T20:17:51.323Z,92200.13
2023-04-15T20:20:21.696Z,92190.94
2023-04-15T20:22:50.583Z,92198.59
2023-04-15T20:25:19.050Z,92190.56
2023-04-15T20:27:47.479Z,92197.03
2023-04-15T20:30:16.057Z,92184.03
2023-04-15T20:32:44.679Z,92192.47
2023-04-15T20:35:13.151Z,92190.78
2023-04-15T20:37:45.332Z,92188.50
2023-04-15T20:40:15.532Z,92197.34
2023-04-15T20:42:44.394Z,92197.69
2023-04-15T20:45:13.221Z,92198.47
2023-04-15T20:47:41.937Z,92199.28
2023-04-15T20:50:12.221Z,92198.75
2023-04-15T20:55:31.706Z,92205.72
2023-04-15T20:58:00.826Z,92203.41
2023-04-15T21:00:29.611Z,92207.66
2023-04-15T21:02:58.208Z,92206.34
2023-04-15T21:05:27.654Z,92215.66
2023-04-15T21:07:57.462Z,92199.88
2023-04-15T21:10:26.364Z,92209.03
2023-04-15T21:12:54.786Z,92211.28
2023-04-15T21:15:23.653Z,92209.78
2023-04-15T21:17:52.143Z,92222.06
2023-04-15T21:20:20.813Z,92221.28
2023-04-15T21:22:49.450Z,92220.13
2023-04-15T21:25:19.432Z,92223.09
2023-04-15T21:27:48.650Z,92224.94
2023-04-15T21:30:17.124Z,92227.59
2023-04-15T21:32:46.692Z,92228.25
2023-04-15T21:35:15.421Z,92223.31
2023-04-15T21:37:43.864Z,92232.41
2023-04-15T21:40:13.393Z,92236.38
2023-04-15T21:42:43.257Z,92233.19
2023-04-15T21:45:13.318Z,92235.25
2023-04-15T21:48:07.753Z,92229.94
2023-04-15T21:50:30.502Z,92225.78
2023-04-15T21:52:59.350Z,92234.41
2023-04-15T21:55:28.189Z,92234.03
2023-04-15T21:57:58.024Z,92233.88
2023-04-15T22:00:26.516Z,92230.94
2023-04-15T22:02:55.084Z,92235.81
2023-04-15T22:05:23.747Z,92231.50
2023-04-15T22:07:52.166Z,92232.47
2023-04-15T22:10:21.042Z,92236.50
2023-04-15T22:12:49.476Z,92246.28
2023-04-15T22:15:19.275Z,92244.09
2023-04-15T22:17:47.777Z,92241.56
2023-04-15T22:20:16.380Z,92242.50
2023-04-15T22:22:45.023Z,92255.88
2023-04-15T22:25:13.741Z,92250.09
2023-04-15T22:27:42.185Z,92255.19
2023-04-15T22:30:12.506Z,92251.31
2023-04-15T22:32:42.523Z,92254.00
2023-04-15T22:35:11.073Z,92257.31
2023-04-15T22:37:39.575Z,92258.88
2023-04-15T22:40:09.665Z,92257.00
2023-04-15T22:42:38.110Z,92265.44
2023-04-15T22:45:08.503Z,92262.44
2023-04-15T22:47:36.975Z,92263.16
2023-04-15T22:50:08.822Z,92264.66
2023-04-15T22:52:37.274Z,92274.97
2023-04-15T22:55:06.597Z,92266.16
2023-04-15T22:57:35.038Z,92265.75
2023-04-15T23:00:04.090Z,92269.72
2023-04-15T23:02:32.634Z,92270.72
2023-04-15T23:05:01.642Z,92271.53
2023-04-15T23:07:42.602Z,92278.44
2023-04-15T23:10:11.679Z,92277.53
2023-04-15T23:12:40.136Z,92270.88
2023-04-15T23:15:10.456Z,92276.97
2023-04-15T23:17:38.984Z,92279.69
2023-04-15T23:20:08.654Z,92280.38
2023-04-15T23:22:37.930Z,92283.06
2023-04-15T23:25:08.676Z,92279.25
2023-04-15T23:27:37.929Z,92281.91
2023-04-15T23:30:08.245Z,92286.06
2023-04-15T23:32:36.737Z,92291.03
2023-04-15T23:35:06.197Z,92285.38
2023-04-15T23:37:34.638Z,92287.63
2023-04-15T23:40:03.672Z,92293.81
2023-04-15T23:42:33.496Z,92296.84
2023-04-15T23:45:01.912Z,92293.03
2023-04-15T23:47:30.455Z,92298.44
2023-04-15T23:52:45.080Z,92294.53
2023-04-15T23:55:13.708Z,92297.19
2023-04-15T23:57:43.488Z,92297.53
